sensor_id;sensor_type;location;lat;lon;timestamp;pressure;altitude;pressure_sealevel;temperature;humidity
37298;BME280;30517;51.932;4.278;2023-03-25T00:01:26;100129.94;;;14.19;64.65
37298;BME280;30517;51.932;4.278;2023-03-25T00:04:08;100132.59;;;14.19;64.51
37298;BME280;30517;51.932;4.278;2023-03-25T00:06:49;100129.13;;;14.16;64.74
37298;BME280;30517;51.932;4.278;2023-03-25T00:09:30;100122.13;;;14.14;64.46
37298;BME280;30517;51.932;4.278;2023-03-25T00:12:10;100131.88;;;14.13;64.51
37298;BME280;30517;51.932;4.278;2023-03-25T00:14:51;100121.28;;;14.12;64.57
37298;BME280;30517;51.932;4.278;2023-03-25T00:17:35;100135.50;;;14.09;64.61
37298;BME280;30517;51.932;4.278;2023-03-25T00:20:17;100128.47;;;14.08;64.75
37298;BME280;30517;51.932;4.278;2023-03-25T00:22:58;100134.63;;;14.09;64.64
37298;BME280;30517;51.932;4.278;2023-03-25T00:25:38;100118.72;;;14.09;64.63
37298;BME280;30517;51.932;4.278;2023-03-25T00:28:19;100131.16;;;14.07;64.57
37298;BME280;30517;51.932;4.278;2023-03-25T00:31:01;100136.44;;;14.07;64.41
37298;BME280;30517;51.932;4.278;2023-03-25T00:33:42;100123.28;;;14.04;64.43
37298;BME280;30517;51.932;4.278;2023-03-25T00:36:23;100120.63;;;14.04;64.79
37298;BME280;30517;51.932;4.278;2023-03-25T00:39:04;100105.69;;;14.01;64.29
37298;BME280;30517;51.932;4.278;2023-03-25T00:41:45;100112.75;;;14.01;64.58
37298;BME280;30517;51.932;4.278;2023-03-25T00:44:27;100119.84;;;14.00;64.75
37298;BME280;30517;51.932;4.278;2023-03-25T00:47:08;100114.56;;;14.00;64.95
37298;BME280;30517;51.932;4.278;2023-03-25T00:49:50;100113.72;;;13.98;64.52
37298;BME280;30517;51.932;4.278;2023-03-25T00:52:31;100109.34;;;13.97;64.93
37298;BME280;30517;51.932;4.278;2023-03-25T00:55:12;100116.44;;;13.97;64.93
37298;BME280;30517;51.932;4.278;2023-03-25T00:57:53;100113.78;;;13.97;64.82
37298;BME280;30517;51.932;4.278;2023-03-25T01:00:33;100112.03;;;13.95;64.92
37298;BME280;30517;51.932;4.278;2023-03-25T01:03:15;100121.75;;;13.95;64.79
37298;BME280;30517;51.932;4.278;2023-03-25T01:05:55;100111.25;;;13.92;65.00
37298;BME280;30517;51.932;4.278;2023-03-25T01:08:37;100109.47;;;13.92;64.75
37298;BME280;30517;51.932;4.278;2023-03-25T01:11:19;100113.03;;;13.91;64.64
37298;BME280;30517;51.932;4.278;2023-03-25T01:14:01;100111.28;;;13.90;64.67
37298;BME280;30517;51.932;4.278;2023-03-25T01:16:42;100105.97;;;13.90;64.65
37298;BME280;30517;51.932;4.278;2023-03-25T01:19:23;100101.59;;;13.89;64.90
37298;BME280;30517;51.932;4.278;2023-03-25T01:22:04;100106.03;;;13.89;64.95
37298;BME280;30517;51.932;4.278;2023-03-25T01:24:45;100102.56;;;13.87;65.25
37298;BME280;30517;51.932;4.278;2023-03-25T01:27:26;100105.19;;;13.87;64.85
37298;BME280;30517;51.932;4.278;2023-03-25T01:30:06;100111.44;;;13.86;65.03
37298;BME280;30517;51.932;4.278;2023-03-25T01:32:48;100104.34;;;13.86;64.98
37298;BME280;30517;51.932;4.278;2023-03-25T01:35:28;100098.16;;;13.86;64.88
37298;BME280;30517;51.932;4.278;2023-03-25T01:38:09;100102.59;;;13.85;64.82
37298;BME280;30517;51.932;4.278;2023-03-25T01:40:50;100096.47;;;13.83;65.14
37298;BME280;30517;51.932;4.278;2023-03-25T01:43:32;100104.44;;;13.83;65.03
37298;BME280;30517;51.932;4.278;2023-03-25T01:46:13;100086.75;;;13.82;65.01
37298;BME280;30517;51.932;4.278;2023-03-25T01:48:54;100081.53;;;13.81;65.22
37298;BME280;30517;51.932;4.278;2023-03-25T01:51:37;100093.00;;;13.80;65.13
37298;BME280;30517;51.932;4.278;2023-03-25T01:54:19;100096.59;;;13.79;65.04
37298;BME280;30517;51.932;4.278;2023-03-25T01:57:00;100088.63;;;13.79;64.83
37298;BME280;30517;51.932;4.278;2023-03-25T01:59:41;100086.91;;;13.78;64.90
37298;BME280;30517;51.932;4.278;2023-03-25T02:02:22;100072.81;;;13.76;64.88
37298;BME280;30517;51.932;4.278;2023-03-25T02:07:57;100089.66;;;13.75;65.33
37298;BME280;30517;51.932;4.278;2023-03-25T02:10:39;100083.44;;;13.74;65.07
37298;BME280;30517;51.932;4.278;2023-03-25T02:13:20;100092.31;;;13.73;65.07
37298;BME280;30517;51.932;4.278;2023-03-25T02:16:05;100080.88;;;13.72;65.23
37298;BME280;30517;51.932;4.278;2023-03-25T02:19:04;100086.16;;;13.72;65.37
37298;BME280;30517;51.932;4.278;2023-03-25T02:21:58;100077.38;;;13.70;65.14
37298;BME280;30517;51.932;4.278;2023-03-25T02:25:04;100065.06;;;13.69;65.13
37298;BME280;30517;51.932;4.278;2023-03-25T02:27:56;100071.22;;;13.70;65.42
37298;BME280;30517;51.932;4.278;2023-03-25T02:39:21;100052.88;;;13.62;65.18
37298;BME280;30517;51.932;4.278;2023-03-25T02:42:05;100054.59;;;13.63;65.50
37298;BME280;30517;51.932;4.278;2023-03-25T02:47:48;100052.00;;;13.62;65.31
37298;BME280;30517;51.932;4.278;2023-03-25T02:50:32;100052.00;;;13.62;65.24
37298;BME280;30517;51.932;4.278;2023-03-25T02:53:16;100059.97;;;13.60;65.06
37298;BME280;30517;51.932;4.278;2023-03-25T02:56:02;100051.16;;;13.61;65.73
37298;BME280;30517;51.932;4.278;2023-03-25T02:58:45;100052.03;;;13.60;65.57
37298;BME280;30517;51.932;4.278;2023-03-25T03:01:26;100045.91;;;13.58;65.43
37298;BME280;30517;51.932;4.278;2023-03-25T03:04:07;100035.31;;;13.58;65.52
37298;BME280;30517;51.932;4.278;2023-03-25T03:06:48;100039.72;;;13.58;65.23
37298;BME280;30517;51.932;4.278;2023-03-25T03:09:37;100038.88;;;13.57;65.33
37298;BME280;30517;51.932;4.278;2023-03-25T03:15:21;100038.97;;;13.54;65.46
37298;BME280;30517;51.932;4.278;2023-03-25T03:18:04;100049.59;;;13.53;65.69
37298;BME280;30517;51.932;4.278;2023-03-25T03:26:44;100049.66;;;13.49;66.04
37298;BME280;30517;51.932;4.278;2023-03-25T03:29:28;100042.59;;;13.50;65.85
37298;BME280;30517;51.932;4.278;2023-03-25T03:32:31;100032.97;;;13.47;65.59
37298;BME280;30517;51.932;4.278;2023-03-25T03:35:23;100047.97;;;13.47;65.69
37298;BME280;30517;51.932;4.278;2023-03-25T03:38:08;100044.53;;;13.45;65.61
37298;BME280;30517;51.932;4.278;2023-03-25T03:40:55;100048.94;;;13.44;65.67
37298;BME280;30517;51.932;4.278;2023-03-25T03:46:26;100057.78;;;13.45;65.67
37298;BME280;30517;51.932;4.278;2023-03-25T03:49:10;100066.59;;;13.44;65.35
37298;BME280;30517;51.932;4.278;2023-03-25T03:54:49;100070.19;;;13.43;65.71
37298;BME280;30517;51.932;4.278;2023-03-25T03:57:34;100060.47;;;13.42;65.60
37298;BME280;30517;51.932;4.278;2023-03-25T04:03:32;100069.34;;;13.41;65.69
37298;BME280;30517;51.932;4.278;2023-03-25T04:06:21;100064.06;;;13.39;65.64
37298;BME280;30517;51.932;4.278;2023-03-25T04:11:47;100048.22;;;13.38;65.83
37298;BME280;30517;51.932;4.278;2023-03-25T04:14:29;100053.53;;;13.38;65.60
37298;BME280;30517;51.932;4.278;2023-03-25T04:17:11;100046.50;;;13.37;65.63
37298;BME280;30517;51.932;4.278;2023-03-25T04:19:52;100058.91;;;13.35;65.29
37298;BME280;30517;51.932;4.278;2023-03-25T04:22:33;100073.88;;;13.36;65.80
37298;BME280;30517;51.932;4.278;2023-03-25T04:25:17;100071.28;;;13.34;65.31
37298;BME280;30517;51.932;4.278;2023-03-25T04:28:00;100076.63;;;13.33;65.49
37298;BME280;30517;51.932;4.278;2023-03-25T04:30:41;100074.88;;;13.32;65.60
37298;BME280;30517;51.932;4.278;2023-03-25T04:33:24;100076.66;;;13.31;65.21
37298;BME280;30517;51.932;4.278;2023-03-25T04:36:05;100074.00;;;13.31;65.23
37298;BME280;30517;51.932;4.278;2023-03-25T04:38:45;100087.28;;;13.30;65.39
37298;BME280;30517;51.932;4.278;2023-03-25T04:41:26;100071.44;;;13.28;65.61
37298;BME280;30517;51.932;4.278;2023-03-25T04:44:07;100073.22;;;13.27;65.58
37298;BME280;30517;51.932;4.278;2023-03-25T04:46:48;100078.56;;;13.26;65.60
37298;BME280;30517;51.932;4.278;2023-03-25T04:49:28;100089.16;;;13.26;65.21
37298;BME280;30517;51.932;4.278;2023-03-25T04:52:09;100069.69;;;13.25;65.15
37298;BME280;30517;51.932;4.278;2023-03-25T04:54:50;100091.81;;;13.24;65.65
37298;BME280;30517;51.932;4.278;2023-03-25T04:57:31;100092.66;;;13.25;65.26
37298;BME280;30517;51.932;4.278;2023-03-25T05:00:12;100076.84;;;13.23;65.68
37298;BME280;30517;51.932;4.278;2023-03-25T05:02:54;100084.81;;;13.22;65.34
37298;BME280;30517;51.932;4.278;2023-03-25T05:05:35;100083.94;;;13.21;65.07
37298;BME280;30517;51.932;4.278;2023-03-25T05:08:16;100097.19;;;13.20;65.38
37298;BME280;30517;51.932;4.278;2023-03-25T05:10:57;100085.75;;;13.19;65.51
37298;BME280;30517;51.932;4.278;2023-03-25T05:13:37;100079.59;;;13.17;65.31
37298;BME280;30517;51.932;4.278;2023-03-25T05:16:18;100091.09;;;13.18;65.33
37298;BME280;30517;51.932;4.278;2023-03-25T05:18:59;100092.84;;;13.17;64.96
37298;BME280;30517;51.932;4.278;2023-03-25T05:21:40;100087.63;;;13.16;65.72
37298;BME280;30517;51.932;4.278;2023-03-25T05:24:21;100092.03;;;13.15;65.10
37298;BME280;30517;51.932;4.278;2023-03-25T05:27:02;100105.31;;;13.14;65.28
37298;BME280;30517;51.932;4.278;2023-03-25T05:29:42;100099.16;;;13.13;65.18
37298;BME280;30517;51.932;4.278;2023-03-25T05:32:24;100098.28;;;13.13;65.36
37298;BME280;30517;51.932;4.278;2023-03-25T05:35:05;100093.94;;;13.10;65.77
37298;BME280;30517;51.932;4.278;2023-03-25T05:37:45;100110.72;;;13.09;65.42
37298;BME280;30517;51.932;4.278;2023-03-25T05:40:29;100110.75;;;13.07;65.85
37298;BME280;30517;51.932;4.278;2023-03-25T05:43:10;100108.13;;;13.07;65.58
37298;BME280;30517;51.932;4.278;2023-03-25T05:45:50;100106.34;;;13.06;65.03
37298;BME280;30517;51.932;4.278;2023-03-25T05:48:31;100131.06;;;13.07;65.63
37298;BME280;30517;51.932;4.278;2023-03-25T05:51:13;100115.22;;;13.05;65.08
37298;BME280;30517;51.932;4.278;2023-03-25T05:53:55;100114.34;;;13.05;65.32
37298;BME280;30517;51.932;4.278;2023-03-25T05:56:35;100116.16;;;13.03;65.45
37298;BME280;30517;51.932;4.278;2023-03-25T05:59:16;100123.19;;;13.04;65.62
37298;BME280;30517;51.932;4.278;2023-03-25T06:01:57;100132.97;;;13.02;65.10
37298;BME280;30517;51.932;4.278;2023-03-25T06:04:37;100131.19;;;13.02;65.83
37298;BME280;30517;51.932;4.278;2023-03-25T06:07:20;100133.84;;;13.01;65.31
37298;BME280;30517;51.932;4.278;2023-03-25T06:10:01;100124.19;;;13.00;65.74
37298;BME280;30517;51.932;4.278;2023-03-25T06:12:45;100123.31;;;12.99;65.08
37298;BME280;30517;51.932;4.278;2023-03-25T06:15:26;100128.63;;;12.98;65.14
37298;BME280;30517;51.932;4.278;2023-03-25T06:18:12;100148.03;;;12.98;65.68
37298;BME280;30517;51.932;4.278;2023-03-25T06:20:53;100134.84;;;12.97;65.25
37298;BME280;30517;51.932;4.278;2023-03-25T06:23:36;100140.13;;;12.97;65.25
37298;BME280;30517;51.932;4.278;2023-03-25T06:26:18;100146.31;;;12.96;65.36
37298;BME280;30517;51.932;4.278;2023-03-25T06:29:00;100134.00;;;12.95;65.42
37298;BME280;30517;51.932;4.278;2023-03-25T06:31:41;100144.59;;;12.95;65.72
37298;BME280;30517;51.932;4.278;2023-03-25T06:34:22;100139.38;;;12.92;65.02
37298;BME280;30517;51.932;4.278;2023-03-25T06:37:03;100142.84;;;12.94;65.11
37298;BME280;30517;51.932;4.278;2023-03-25T06:39:45;100134.06;;;12.92;65.71
37298;BME280;30517;51.932;4.278;2023-03-25T06:42:28;100155.25;;;12.92;65.55
37298;BME280;30517;51.932;4.278;2023-03-25T06:45:10;100153.50;;;12.91;65.62
37298;BME280;30517;51.932;4.278;2023-03-25T06:47:51;100143.81;;;12.90;65.50
37298;BME280;30517;51.932;4.278;2023-03-25T06:50:33;100150.03;;;12.89;65.21
37298;BME280;30517;51.932;4.278;2023-03-25T06:53:14;100155.31;;;12.89;65.17
37298;BME280;30517;51.932;4.278;2023-03-25T06:55:55;100150.91;;;12.88;65.44
37298;BME280;30517;51.932;4.278;2023-03-25T06:58:36;100158.84;;;12.88;65.50
37298;BME280;30517;51.932;4.278;2023-03-25T07:01:17;100157.97;;;12.89;65.56
37298;BME280;30517;51.932;4.278;2023-03-25T07:03:58;100154.47;;;12.88;65.30
37298;BME280;30517;51.932;4.278;2023-03-25T07:06:39;100156.22;;;12.88;65.61
37298;BME280;30517;51.932;4.278;2023-03-25T07:09:20;100162.41;;;12.87;64.87
37298;BME280;30517;51.932;4.278;2023-03-25T07:12:01;100156.25;;;12.86;65.43
37298;BME280;30517;51.932;4.278;2023-03-25T07:14:42;100172.16;;;12.86;65.26
37298;BME280;30517;51.932;4.278;2023-03-25T07:17:23;100154.50;;;12.85;64.92
37298;BME280;30517;51.932;4.278;2023-03-25T07:20:04;100184.50;;;12.86;65.04
37298;BME280;30517;51.932;4.278;2023-03-25T07:22:45;100172.16;;;12.84;64.69
37298;BME280;30517;51.932;4.278;2023-03-25T07:25:26;100162.50;;;12.83;65.05
37298;BME280;30517;51.932;4.278;2023-03-25T07:28:07;100178.31;;;12.85;65.40
37298;BME280;30517;51.932;4.278;2023-03-25T07:30:48;100175.69;;;12.85;65.29
37298;BME280;30517;51.932;4.278;2023-03-25T07:33:28;100180.16;;;12.83;65.00
37298;BME280;30517;51.932;4.278;2023-03-25T07:36:10;100175.72;;;12.83;64.95
37298;BME280;30517;51.932;4.278;2023-03-25T07:38:51;100171.31;;;12.82;65.60
37298;BME280;30517;51.932;4.278;2023-03-25T07:41:32;100173.97;;;12.82;64.96
37298;BME280;30517;51.932;4.278;2023-03-25T07:44:13;100173.94;;;12.84;65.64
37298;BME280;30517;51.932;4.278;2023-03-25T07:46:54;100184.59;;;12.81;65.30
37298;BME280;30517;51.932;4.278;2023-03-25T07:49:35;100180.19;;;12.81;65.26
37298;BME280;30517;51.932;4.278;2023-03-25T07:52:20;100195.13;;;12.82;65.45
37298;BME280;30517;51.932;4.278;2023-03-25T07:55:01;100183.69;;;12.82;65.19
37298;BME280;30517;51.932;4.278;2023-03-25T07:57:42;100178.38;;;12.83;65.09
37298;BME280;30517;51.932;4.278;2023-03-25T08:00:25;100183.66;;;12.83;65.39
37298;BME280;30517;51.932;4.278;2023-03-25T08:03:06;100204.84;;;12.83;65.39
37298;BME280;30517;51.932;4.278;2023-03-25T08:05:47;100185.47;;;12.81;65.65
37298;BME280;30517;51.932;4.278;2023-03-25T08:08:28;100203.09;;;12.82;65.40
37298;BME280;30517;51.932;4.278;2023-03-25T08:11:09;100201.34;;;12.81;65.25
37298;BME280;30517;51.932;4.278;2023-03-25T08:13:50;100214.59;;;12.81;64.96
37298;BME280;30517;51.932;4.278;2023-03-25T08:16:30;100204.00;;;12.81;65.41
37298;BME280;30517;51.932;4.278;2023-03-25T08:19:11;100204.00;;;12.81;65.49
37298;BME280;30517;51.932;4.278;2023-03-25T08:21:55;100217.22;;;12.81;64.96
37298;BME280;30517;51.932;4.278;2023-03-25T08:24:38;100218.97;;;12.82;65.11
37298;BME280;30517;51.932;4.278;2023-03-25T08:27:19;100218.97;;;12.82;64.84
37298;BME280;30517;51.932;4.278;2023-03-25T08:29:59;100226.91;;;12.82;65.31
37298;BME280;30517;51.932;4.278;2023-03-25T08:32:40;100232.19;;;12.82;65.58
37298;BME280;30517;51.932;4.278;2023-03-25T08:35:25;100210.13;;;12.83;65.15
37298;BME280;30517;51.932;4.278;2023-03-25T08:38:06;100203.09;;;12.82;65.48
37298;BME280;30517;51.932;4.278;2023-03-25T08:40:47;100236.59;;;12.83;65.09
37298;BME280;30517;51.932;4.278;2023-03-25T08:43:28;100231.31;;;12.83;64.70
37298;BME280;30517;51.932;4.278;2023-03-25T08:46:15;100221.59;;;12.82;64.93
37298;BME280;30517;51.932;4.278;2023-03-25T08:48:56;100223.38;;;12.83;65.59
37298;BME280;30517;51.932;4.278;2023-03-25T08:51:37;100207.50;;;12.83;65.48
37298;BME280;30517;51.932;4.278;2023-03-25T08:54:18;100233.03;;;12.84;65.09
37298;BME280;30517;51.932;4.278;2023-03-25T08:56:58;100225.97;;;12.85;65.23
37298;BME280;30517;51.932;4.278;2023-03-25T08:59:39;100225.94;;;12.87;65.54
37298;BME280;30517;51.932;4.278;2023-03-25T09:02:21;100246.25;;;12.86;65.22
37298;BME280;30517;51.932;4.278;2023-03-25T09:05:01;100259.44;;;12.88;65.31
37298;BME280;30517;51.932;4.278;2023-03-25T09:07:43;100235.59;;;12.89;65.32
37298;BME280;30517;51.932;4.278;2023-03-25T09:10:24;100229.44;;;12.89;64.94
37298;BME280;30517;51.932;4.278;2023-03-25T09:13:06;100233.88;;;12.88;65.45
37298;BME280;30517;51.932;4.278;2023-03-25T09:15:47;100244.41;;;12.90;64.97
37298;BME280;30517;51.932;4.278;2023-03-25T09:18:35;100250.63;;;12.89;65.16
37298;BME280;30517;51.932;4.278;2023-03-25T09:21:16;100254.06;;;12.91;65.39
37298;BME280;30517;51.932;4.278;2023-03-25T09:23:56;100253.19;;;12.92;64.70
37298;BME280;30517;51.932;4.278;2023-03-25T09:26:37;100247.91;;;12.92;65.35
37298;BME280;30517;51.932;4.278;2023-03-25T09:29:18;100251.41;;;12.92;65.28
37298;BME280;30517;51.932;4.278;2023-03-25T09:31:59;100232.88;;;12.94;65.65
37298;BME280;30517;51.932;4.278;2023-03-25T09:34:40;100247.81;;;12.95;65.22
37298;BME280;30517;51.932;4.278;2023-03-25T09:37:20;100254.84;;;12.96;64.96
37298;BME280;30517;51.932;4.278;2023-03-25T09:40:01;100255.69;;;12.98;65.37
37298;BME280;30517;51.932;4.278;2023-03-25T09:45:42;100275.16;;;12.95;65.61
37298;BME280;30517;51.932;4.278;2023-03-25T09:48:26;100250.41;;;12.98;65.33
37298;BME280;30517;51.932;4.278;2023-03-25T09:56:45;100283.94;;;12.99;64.81
37298;BME280;30517;51.932;4.278;2023-03-25T09:59:41;100267.13;;;13.00;65.58
37298;BME280;30517;51.932;4.278;2023-03-25T10:05:12;100272.38;;;13.01;64.61
37298;BME280;30517;51.932;4.278;2023-03-25T10:08:19;100278.56;;;13.02;65.20
37298;BME280;30517;51.932;4.278;2023-03-25T10:11:06;100281.16;;;13.03;65.00
37298;BME280;30517;51.932;4.278;2023-03-25T10:16:47;100293.53;;;13.04;65.26
37298;BME280;30517;51.932;4.278;2023-03-25T10:22:15;100302.28;;;13.06;65.09
37298;BME280;30517;51.932;4.278;2023-03-25T10:27:44;100301.34;;;13.09;65.66
37298;BME280;30517;51.932;4.278;2023-03-25T10:30:29;100300.47;;;13.10;65.40
37298;BME280;30517;51.932;4.278;2023-03-25T10:33:47;100304.81;;;13.13;65.15
37298;BME280;30517;51.932;4.278;2023-03-25T10:36:21;100311.00;;;13.12;65.41
37298;BME280;30517;51.932;4.278;2023-03-25T10:39:12;100306.56;;;13.12;65.51
37298;BME280;30517;51.932;4.278;2023-03-25T10:41:58;100295.09;;;13.13;65.67
37298;BME280;30517;51.932;4.278;2023-03-25T10:44:39;100299.47;;;13.14;65.67
37298;BME280;30517;51.932;4.278;2023-03-25T10:47:22;100308.25;;;13.16;64.74
37298;BME280;30517;51.932;4.278;2023-03-25T10:50:05;100314.41;;;13.18;65.32
37298;BME280;30517;51.932;4.278;2023-03-25T10:52:46;100319.66;;;13.20;64.79
37298;BME280;30517;51.932;4.278;2023-03-25T10:55:31;100306.41;;;13.21;65.43
37298;BME280;30517;51.932;4.278;2023-03-25T10:58:14;100322.22;;;13.24;65.21
37298;BME280;30517;51.932;4.278;2023-03-25T11:00:55;100315.13;;;13.25;65.18
37298;BME280;30517;51.932;4.278;2023-03-25T11:03:36;100313.41;;;13.22;65.53
37298;BME280;30517;51.932;4.278;2023-03-25T11:06:26;100315.19;;;13.23;64.85
37298;BME280;30517;51.932;4.278;2023-03-25T11:11:53;100336.34;;;13.26;65.17
37298;BME280;30517;51.932;4.278;2023-03-25T11:14:35;100338.94;;;13.28;65.36
37298;BME280;30517;51.932;4.278;2023-03-25T11:17:17;100346.00;;;13.27;65.15
37298;BME280;30517;51.932;4.278;2023-03-25T11:20:05;100330.97;;;13.30;65.39
37298;BME280;30517;51.932;4.278;2023-03-25T11:22:50;100374.19;;;13.32;65.04
37298;BME280;30517;51.932;4.278;2023-03-25T11:25:36;100335.31;;;13.32;64.70
37298;BME280;30517;51.932;4.278;2023-03-25T11:28:34;100318.50;;;13.35;65.16
37298;BME280;30517;51.932;4.278;2023-03-25T11:36:54;100336.09;;;13.37;64.96
37298;BME280;30517;51.932;4.278;2023-03-25T11:39:39;100335.19;;;13.38;64.88
37298;BME280;30517;51.932;4.278;2023-03-25T11:45:01;100339.53;;;13.41;64.94
37298;BME280;30517;51.932;4.278;2023-03-25T11:47:42;100255.84;;;12.92;65.19
37298;BME280;30517;51.932;4.278;2023-03-25T11:50:24;100341.34;;;13.40;64.71
37298;BME280;30517;51.932;4.278;2023-03-25T11:53:11;100357.16;;;13.42;64.28
37298;BME280;30517;51.932;4.278;2023-03-25T11:56:07;100350.06;;;13.44;64.67
37298;BME280;30517;51.932;4.278;2023-03-25T11:58:50;100353.56;;;13.46;64.82
37298;BME280;30517;51.932;4.278;2023-03-25T12:01:40;100347.34;;;13.47;64.49
37298;BME280;30517;51.932;4.278;2023-03-25T12:04:23;100335.94;;;13.45;64.50
37298;BME280;30517;51.932;4.278;2023-03-25T12:07:08;100321.78;;;13.44;64.89
37298;BME280;30517;51.932;4.278;2023-03-25T12:09:53;100374.75;;;13.47;64.48
37298;BME280;30517;51.932;4.278;2023-03-25T12:33:03;100362.19;;;13.56;64.78
37298;BME280;30517;51.932;4.278;2023-03-25T12:41:54;100383.34;;;13.57;64.94
37298;BME280;30517;51.932;4.278;2023-03-25T12:44:45;100381.56;;;13.58;64.78
37298;BME280;30517;51.932;4.278;2023-03-25T12:53:02;100371.72;;;13.63;64.74
37298;BME280;30517;51.932;4.278;2023-03-25T13:02:11;100383.94;;;13.70;64.95
37298;BME280;30517;51.932;4.278;2023-03-25T13:05:04;100412.13;;;13.74;64.83
37298;BME280;30517;51.932;4.278;2023-03-25T13:07:58;100396.13;;;13.79;64.88
37298;BME280;30517;51.932;4.278;2023-03-25T13:10:43;100400.47;;;13.83;64.45
37298;BME280;30517;51.932;4.278;2023-03-25T13:13:26;100409.22;;;13.86;64.19
37298;BME280;30517;51.932;4.278;2023-03-25T13:16:10;100385.28;;;13.88;64.53
37298;BME280;30517;51.932;4.278;2023-03-25T13:21:45;100402.03;;;13.91;64.57
37298;BME280;30517;51.932;4.278;2023-03-25T13:24:40;100393.13;;;13.94;64.33
37298;BME280;30517;51.932;4.278;2023-03-25T13:27:23;100393.13;;;13.94;64.33
37298;BME280;30517;51.932;4.278;2023-03-25T13:30:05;100401.03;;;13.95;64.14
37298;BME280;30517;51.932;4.278;2023-03-25T13:32:53;100403.66;;;13.97;64.21
37298;BME280;30517;51.932;4.278;2023-03-25T13:36:20;100404.53;;;13.98;64.03
37298;BME280;30517;51.932;4.278;2023-03-25T13:38:53;100411.56;;;13.99;63.94
37298;BME280;30517;51.932;4.278;2023-03-25T13:44:24;100395.66;;;13.99;64.38
37298;BME280;30517;51.932;4.278;2023-03-25T13:49:54;100420.41;;;13.99;64.25
37298;BME280;30517;51.932;4.278;2023-03-25T13:52:37;100406.25;;;13.99;64.41
37298;BME280;30517;51.932;4.278;2023-03-25T13:55:25;100416.81;;;14.02;64.21
37298;BME280;30517;51.932;4.278;2023-03-25T14:12:19;100425.50;;;14.07;64.80
37298;BME280;30517;51.932;4.278;2023-03-25T14:15:19;100413.97;;;14.09;65.12
37298;BME280;30517;51.932;4.278;2023-03-25T14:18:01;100431.56;;;14.13;65.27
37298;BME280;30517;51.932;4.278;2023-03-25T14:20:48;100452.72;;;14.16;65.34
37298;BME280;30517;51.932;4.278;2023-03-25T14:23:29;100460.50;;;14.23;65.24
37298;BME280;30517;51.932;4.278;2023-03-25T14:26:11;100412.22;;;14.08;65.39
37298;BME280;30517;51.932;4.278;2023-03-25T14:28:51;100451.44;;;14.33;65.43
37298;BME280;30517;51.932;4.278;2023-03-25T14:31:34;100441.50;;;14.41;65.46
37298;BME280;30517;51.932;4.278;2023-03-25T14:34:24;100470.53;;;14.47;65.31
37298;BME280;30517;51.932;4.278;2023-03-25T14:39:46;100449.88;;;14.62;64.93
37298;BME280;30517;51.932;4.278;2023-03-25T14:42:29;100451.50;;;14.67;64.70
37298;BME280;30517;51.932;4.278;2023-03-25T14:48:24;100469.06;;;14.73;64.57
37298;BME280;30517;51.932;4.278;2023-03-25T14:51:09;100460.16;;;14.75;64.61
37298;BME280;30517;51.932;4.278;2023-03-25T14:53:54;100467.09;;;14.81;64.39
37298;BME280;30517;51.932;4.278;2023-03-25T14:56:44;100469.66;;;14.84;64.37
37298;BME280;30517;51.932;4.278;2023-03-25T14:59:28;100459.81;;;14.88;64.00
37298;BME280;30517;51.932;4.278;2023-03-25T15:02:13;100468.63;;;14.90;63.87
37298;BME280;30517;51.932;4.278;2023-03-25T15:05:00;100465.03;;;14.92;64.00
37298;BME280;30517;51.932;4.278;2023-03-25T15:08:28;100464.13;;;14.93;63.63
37298;BME280;30517;51.932;4.278;2023-03-25T15:10:49;100491.50;;;14.95;63.72
37298;BME280;30517;51.932;4.278;2023-03-25T15:13:34;100482.63;;;14.96;63.54
37298;BME280;30517;51.932;4.278;2023-03-25T15:19:17;100502.97;;;14.97;63.49
37298;BME280;30517;51.932;4.278;2023-03-25T15:24:40;100486.09;;;14.98;63.23
37298;BME280;30517;51.932;4.278;2023-03-25T15:27:40;100480.75;;;15.00;63.62
37298;BME280;30517;51.932;4.278;2023-03-25T15:33:23;100488.69;;;15.01;63.57
37298;BME280;30517;51.932;4.278;2023-03-25T15:36:15;100494.88;;;15.02;63.50
37298;BME280;30517;51.932;4.278;2023-03-25T15:39:07;100499.31;;;15.01;63.38
37298;BME280;30517;51.932;4.278;2023-03-25T15:55:41;100521.53;;;14.97;63.04
37298;BME280;30517;51.932;4.278;2023-03-25T16:01:12;100518.88;;;14.97;62.98
37298;BME280;30517;51.932;4.278;2023-03-25T16:04:02;100510.94;;;14.97;62.86
37298;BME280;30517;51.932;4.278;2023-03-25T16:06:45;100516.25;;;14.97;63.03
37298;BME280;30517;51.932;4.278;2023-03-25T16:09:27;100514.44;;;14.98;62.67
37298;BME280;30517;51.932;4.278;2023-03-25T16:12:08;100525.13;;;14.96;63.11
37298;BME280;30517;51.932;4.278;2023-03-25T16:14:50;100522.47;;;14.96;62.93
37298;BME280;30517;51.932;4.278;2023-03-25T16:17:31;100530.44;;;14.96;62.69
37298;BME280;30517;51.932;4.278;2023-03-25T16:20:14;100527.81;;;14.95;62.67
37298;BME280;30517;51.932;4.278;2023-03-25T16:22:57;100531.38;;;14.94;62.89
37298;BME280;30517;51.932;4.278;2023-03-25T16:25:39;100542.00;;;14.94;62.67
37298;BME280;30517;51.932;4.278;2023-03-25T16:28:39;100536.72;;;14.92;62.49
37298;BME280;30517;51.932;4.278;2023-03-25T16:31:29;100536.78;;;14.91;62.83
37298;BME280;30517;51.932;4.278;2023-03-25T16:34:20;100542.13;;;14.89;62.72
37298;BME280;30517;51.932;4.278;2023-03-25T16:37:00;100534.19;;;14.88;62.84
37298;BME280;30517;51.932;4.278;2023-03-25T16:39:42;100536.88;;;14.86;62.48
37298;BME280;30517;51.932;4.278;2023-03-25T16:42:29;100548.41;;;14.85;62.57
37298;BME280;30517;51.932;4.278;2023-03-25T16:45:13;100557.28;;;14.84;62.44
37298;BME280;30517;51.932;4.278;2023-03-25T16:47:54;100580.34;;;14.82;62.67
37298;BME280;30517;51.932;4.278;2023-03-25T16:50:36;100580.41;;;14.80;62.61
37298;BME280;30517;51.932;4.278;2023-03-25T16:53:17;100573.28;;;14.81;62.12